sensor_id;sensor_type;location;lat;lon;timestamp;P1;P2;P0
57049;PMS7003;42935;50.966;16.992;2023-08-20T00:02:09;32;28;20
57049;PMS7003;42935;50.966;16.992;2023-08-20T00:05:33;28;27;18
57049;PMS7003;42935;50.966;16.992;2023-08-20T00:08:57;29;27;19
57049;PMS7003;42935;50.966;16.992;2023-08-20T00:12:18;30;28;19
57049;PMS7003;42935;50.966;16.992;2023-08-20T00:15:44;28;27;20
57049;PMS7003;42935;50.966;16.992;2023-08-20T00:19:05;28;25;18
57049;PMS7003;42935;50.966;16.992;2023-08-20T00:22:26;28;25;18
57049;PMS7003;42935;50.966;16.992;2023-08-20T00:25:58;28;27;18
57049;PMS7003;42935;50.966;16.992;2023-08-20T00:29:23;31;28;19
57049;PMS7003;42935;50.966;16.992;2023-08-20T00:33:12;30;27;19
57049;PMS7003;42935;50.966;16.992;2023-08-20T00:36:32;30;28;20
57049;PMS7003;42935;50.966;16.992;2023-08-20T00:39:56;33;29;19
57049;PMS7003;42935;50.966;16.992;2023-08-20T00:43:25;31;28;20
57049;PMS7003;42935;50.966;16.992;2023-08-20T00:46:50;30;28;18
57049;PMS7003;42935;50.966;16.992;2023-08-20T00:50:11;32;29;20
57049;PMS7003;42935;50.966;16.992;2023-08-20T00:53:35;33;29;19
57049;PMS7003;42935;50.966;16.992;2023-08-20T00:57:00;27;26;17
57049;PMS7003;42935;50.966;16.992;2023-08-20T01:00:18;30;27;20
57049;PMS7003;42935;50.966;16.992;2023-08-20T01:03:40;29;28;19
57049;PMS7003;42935;50.966;16.992;2023-08-20T01:11:06;26;26;19
57049;PMS7003;42935;50.966;16.992;2023-08-20T01:14:28;29;27;19
57049;PMS7003;42935;50.966;16.992;2023-08-20T01:17:44;34;30;20
57049;PMS7003;42935;50.966;16.992;2023-08-20T01:21:06;31;28;20
57049;PMS7003;42935;50.966;16.992;2023-08-20T01:28:34;31;28;20
57049;PMS7003;42935;50.966;16.992;2023-08-20T01:32:07;36;30;20
57049;PMS7003;42935;50.966;16.992;2023-08-20T01:35:33;38;31;21
57049;PMS7003;42935;50.966;16.992;2023-08-20T01:38:59;31;28;19
57049;PMS7003;42935;50.966;16.992;2023-08-20T01:42:21;27;27;19
57049;PMS7003;42935;50.966;16.992;2023-08-20T01:45:42;28;25;19
57049;PMS7003;42935;50.966;16.992;2023-08-20T01:49:06;29;27;19
57049;PMS7003;42935;50.966;16.992;2023-08-20T01:52:30;28;26;18
57049;PMS7003;42935;50.966;16.992;2023-08-20T01:55:47;24;21;17
57049;PMS7003;42935;50.966;16.992;2023-08-20T01:59:21;29;27;18
57049;PMS7003;42935;50.966;16.992;2023-08-20T02:02:54;31;28;20
57049;PMS7003;42935;50.966;16.992;2023-08-20T02:06:16;30;27;19
57049;PMS7003;42935;50.966;16.992;2023-08-20T02:09:36;31;28;20
57049;PMS7003;42935;50.966;16.992;2023-08-20T02:12:58;29;26;19
57049;PMS7003;42935;50.966;16.992;2023-08-20T02:16:27;32;30;20
57049;PMS7003;42935;50.966;16.992;2023-08-20T02:20:31;32;29;20
57049;PMS7003;42935;50.966;16.992;2023-08-20T02:23:51;34;30;20
57049;PMS7003;42935;50.966;16.992;2023-08-20T02:27:09;31;28;19
57049;PMS7003;42935;50.966;16.992;2023-08-20T02:34:04;29;28;20
57049;PMS7003;42935;50.966;16.992;2023-08-20T02:37:25;36;31;21
57049;PMS7003;42935;50.966;16.992;2023-08-20T02:40:51;33;30;20
57049;PMS7003;42935;50.966;16.992;2023-08-20T02:44:23;32;29;21
57049;PMS7003;42935;50.966;16.992;2023-08-20T02:48:23;32;29;19
57049;PMS7003;42935;50.966;16.992;2023-08-20T02:51:49;31;28;20
57049;PMS7003;42935;50.966;16.992;2023-08-20T02:55:10;31;28;20
57049;PMS7003;42935;50.966;16.992;2023-08-20T02:58:34;32;30;21
57049;PMS7003;42935;50.966;16.992;2023-08-20T03:01:57;29;27;19
57049;PMS7003;42935;50.966;16.992;2023-08-20T03:05:17;33;29;21
57049;PMS7003;42935;50.966;16.992;2023-08-20T03:08:37;31;28;20
57049;PMS7003;42935;50.966;16.992;2023-08-20T03:12:07;32;30;20
57049;PMS7003;42935;50.966;16.992;2023-08-20T03:15:29;35;29;20
57049;PMS7003;42935;50.966;16.992;2023-08-20T03:19:02;32;27;20
57049;PMS7003;42935;50.966;16.992;2023-08-20T03:22:32;32;28;20
57049;PMS7003;42935;50.966;16.992;2023-08-20T03:25:53;29;28;20
57049;PMS7003;42935;50.966;16.992;2023-08-20T03:29:22;30;28;20
57049;PMS7003;42935;50.966;16.992;2023-08-20T03:32:53;27;25;18
57049;PMS7003;42935;50.966;16.992;2023-08-20T03:36:20;29;25;18
57049;PMS7003;42935;50.966;16.992;2023-08-20T03:40:11;29;27;19
57049;PMS7003;42935;50.966;16.992;2023-08-20T03:43:31;34;29;19
57049;PMS7003;42935;50.966;16.992;2023-08-20T03:46:51;29;28;19
57049;PMS7003;42935;50.966;16.992;2023-08-20T03:50:18;33;29;19
57049;PMS7003;42935;50.966;16.992;2023-08-20T03:53:44;31;29;19
57049;PMS7003;42935;50.966;16.992;2023-08-20T03:57:08;32;29;21
57049;PMS7003;42935;50.966;16.992;2023-08-20T04:00:46;30;27;19
57049;PMS7003;42935;50.966;16.992;2023-08-20T04:04:41;31;27;18
57049;PMS7003;42935;50.966;16.992;2023-08-20T04:08:13;29;27;18
57049;PMS7003;42935;50.966;16.992;2023-08-20T04:11:33;28;26;19
57049;PMS7003;42935;50.966;16.992;2023-08-20T04:14:51;29;26;18
57049;PMS7003;42935;50.966;16.992;2023-08-20T04:18:45;32;28;19
57049;PMS7003;42935;50.966;16.992;2023-08-20T04:22:09;30;27;19
57049;PMS7003;42935;50.966;16.992;2023-08-20T04:25:29;34;29;19
57049;PMS7003;42935;50.966;16.992;2023-08-20T04:28:56;33;29;20
57049;PMS7003;42935;50.966;16.992;2023-08-20T04:32:27;32;28;19
57049;PMS7003;42935;50.966;16.992;2023-08-20T04:35:57;34;30;21
57049;PMS7003;42935;50.966;16.992;2023-08-20T04:39:19;32;28;20
57049;PMS7003;42935;50.966;16.992;2023-08-20T04:42:48;33;30;20
57049;PMS7003;42935;50.966;16.992;2023-08-20T04:46:16;36;30;20
57049;PMS7003;42935;50.966;16.992;2023-08-20T04:50:16;37;32;21
57049;PMS7003;42935;50.966;16.992;2023-08-20T04:53:37;30;28;19
57049;PMS7003;42935;50.966;16.992;2023-08-20T04:57:00;38;32;20
57049;PMS7003;42935;50.966;16.992;2023-08-20T05:00:27;31;28;18
57049;PMS7003;42935;50.966;16.992;2023-08-20T05:03:48;33;30;20
57049;PMS7003;42935;50.966;16.992;2023-08-20T05:07:38;30;28;20
57049;PMS7003;42935;50.966;16.992;2023-08-20T05:10:57;30;28;20
57049;PMS7003;42935;50.966;16.992;2023-08-20T05:14:18;31;28;20
57049;PMS7003;42935;50.966;16.992;2023-08-20T05:17:41;29;27;20
57049;PMS7003;42935;50.966;16.992;2023-08-20T05:21:02;31;26;19
57049;PMS7003;42935;50.966;16.992;2023-08-20T05:24:22;33;29;21
57049;PMS7003;42935;50.966;16.992;2023-08-20T05:27:43;34;30;20
57049;PMS7003;42935;50.966;16.992;2023-08-20T05:31:02;34;30;21
57049;PMS7003;42935;50.966;16.992;2023-08-20T05:34:24;34;30;20
57049;PMS7003;42935;50.966;16.992;2023-08-20T05:38:24;34;31;20
57049;PMS7003;42935;50.966;16.992;2023-08-20T05:41:52;33;29;21
57049;PMS7003;42935;50.966;16.992;2023-08-20T05:45:12;35;30;21
57049;PMS7003;42935;50.966;16.992;2023-08-20T05:48:38;34;29;20
57049;PMS7003;42935;50.966;16.992;2023-08-20T05:52:03;38;32;22
57049;PMS7003;42935;50.966;16.992;2023-08-20T05:55:26;36;30;21
57049;PMS7003;42935;50.966;16.992;2023-08-20T05:59:18;35;31;21
57049;PMS7003;42935;50.966;16.992;2023-08-20T06:02:38;34;30;20
57049;PMS7003;42935;50.966;16.992;2023-08-20T06:06:36;33;29;21
57049;PMS7003;42935;50.966;16.992;2023-08-20T06:10:28;30;28;20
57049;PMS7003;42935;50.966;16.992;2023-08-20T06:13:54;33;28;20
57049;PMS7003;42935;50.966;16.992;2023-08-20T06:17:56;33;30;20
57049;PMS7003;42935;50.966;16.992;2023-08-20T06:21:32;32;29;20
57049;PMS7003;42935;50.966;16.992;2023-08-20T06:25:30;33;28;19
57049;PMS7003;42935;50.966;16.992;2023-08-20T06:29:00;30;28;20
57049;PMS7003;42935;50.966;16.992;2023-08-20T06:32:21;31;29;20
57049;PMS7003;42935;50.966;16.992;2023-08-20T06:35:44;31;28;20
57049;PMS7003;42935;50.966;16.992;2023-08-20T06:39:12;35;29;20
57049;PMS7003;42935;50.966;16.992;2023-08-20T06:42:49;33;30;21
57049;PMS7003;42935;50.966;16.992;2023-08-20T06:46:47;31;27;20
57049;PMS7003;42935;50.966;16.992;2023-08-20T06:50:17;31;25;18
57049;PMS7003;42935;50.966;16.992;2023-08-20T06:53:44;29;28;20
57049;PMS7003;42935;50.966;16.992;2023-08-20T06:57:08;31;27;19
57049;PMS7003;42935;50.966;16.992;2023-08-20T07:00:37;26;25;19
57049;PMS7003;42935;50.966;16.992;2023-08-20T07:04:11;32;29;19
57049;PMS7003;42935;50.966;16.992;2023-08-20T07:07:35;31;27;20
57049;PMS7003;42935;50.966;16.992;2023-08-20T07:11:08;33;29;20
57049;PMS7003;42935;50.966;16.992;2023-08-20T07:14:32;31;28;19
57049;PMS7003;42935;50.966;16.992;2023-08-20T07:17:57;28;24;17
57049;PMS7003;42935;50.966;16.992;2023-08-20T07:21:22;24;23;18
57049;PMS7003;42935;50.966;16.992;2023-08-20T07:24:45;23;23;17
57049;PMS7003;42935;50.966;16.992;2023-08-20T07:28:11;26;23;17
57049;PMS7003;42935;50.966;16.992;2023-08-20T07:31:32;24;23;17
57049;PMS7003;42935;50.966;16.992;2023-08-20T07:34:50;27;24;19
57049;PMS7003;42935;50.966;16.992;2023-08-20T07:38:46;25;23;17
57049;PMS7003;42935;50.966;16.992;2023-08-20T07:42:09;24;23;17
57049;PMS7003;42935;50.966;16.992;2023-08-20T07:45:30;23;23;17
57049;PMS7003;42935;50.966;16.992;2023-08-20T07:48:53;26;25;18
57049;PMS7003;42935;50.966;16.992;2023-08-20T07:52:23;26;23;17
57049;PMS7003;42935;50.966;16.992;2023-08-20T07:55:44;25;23;18
57049;PMS7003;42935;50.966;16.992;2023-08-20T07:59:02;24;22;17
57049;PMS7003;42935;50.966;16.992;2023-08-20T08:02:30;20;20;16
57049;PMS7003;42935;50.966;16.992;2023-08-20T08:05:59;21;19;14
57049;PMS7003;42935;50.966;16.992;2023-08-20T08:09:25;23;22;16
57049;PMS7003;42935;50.966;16.992;2023-08-20T08:12:53;23;20;16
57049;PMS7003;42935;50.966;16.992;2023-08-20T08:16:19;23;23;16
57049;PMS7003;42935;50.966;16.992;2023-08-20T08:19:40;22;21;16
57049;PMS7003;42935;50.966;16.992;2023-08-20T08:23:01;22;21;16
57049;PMS7003;42935;50.966;16.992;2023-08-20T08:26:24;21;18;14
57049;PMS7003;42935;50.966;16.992;2023-08-20T08:30:20;22;21;16
57049;PMS7003;42935;50.966;16.992;2023-08-20T08:33:48;20;18;13
57049;PMS7003;42935;50.966;16.992;2023-08-20T08:37:11;19;17;13
57049;PMS7003;42935;50.966;16.992;2023-08-20T08:40:32;22;17;14
57049;PMS7003;42935;50.966;16.992;2023-08-20T08:44:00;22;21;15
57049;PMS7003;42935;50.966;16.992;2023-08-20T08:47:27;22;19;14
57049;PMS7003;42935;50.966;16.992;2023-08-20T08:50:49;19;18;15
57049;PMS7003;42935;50.966;16.992;2023-08-20T08:54:12;22;20;15
57049;PMS7003;42935;50.966;16.992;2023-08-20T08:57:41;21;19;15
57049;PMS7003;42935;50.966;16.992;2023-08-20T09:01:06;20;18;15
57049;PMS7003;42935;50.966;16.992;2023-08-20T09:04:27;22;21;16
57049;PMS7003;42935;50.966;16.992;2023-08-20T09:07:48;19;19;14
57049;PMS7003;42935;50.966;16.992;2023-08-20T09:11:14;17;16;12
57049;PMS7003;42935;50.966;16.992;2023-08-20T09:14:33;18;16;11
57049;PMS7003;42935;50.966;16.992;2023-08-20T09:17:52;21;17;13
57049;PMS7003;42935;50.966;16.992;2023-08-20T09:21:48;20;17;13
57049;PMS7003;42935;50.966;16.992;2023-08-20T09:25:15;19;17;14
57049;PMS7003;42935;50.966;16.992;2023-08-20T09:28:41;20;19;14
57049;PMS7003;42935;50.966;16.992;2023-08-20T09:32:06;18;16;12
57049;PMS7003;42935;50.966;16.992;2023-08-20T09:35:26;20;18;14
57049;PMS7003;42935;50.966;16.992;2023-08-20T09:39:17;22;19;15
57049;PMS7003;42935;50.966;16.992;2023-08-20T09:42:40;18;17;13
57049;PMS7003;42935;50.966;16.992;2023-08-20T09:46:31;19;19;15
57049;PMS7003;42935;50.966;16.992;2023-08-20T09:49:57;19;19;15
57049;PMS7003;42935;50.966;16.992;2023-08-20T10:01:03;28;22;16
57049;PMS7003;42935;50.966;16.992;2023-08-20T10:04:32;19;18;14
57049;PMS7003;42935;50.966;16.992;2023-08-20T10:07:55;18;18;14
57049;PMS7003;42935;50.966;16.992;2023-08-20T10:11:23;21;19;15
57049;PMS7003;42935;50.966;16.992;2023-08-20T10:14:49;23;20;15
57049;PMS7003;42935;50.966;16.992;2023-08-20T10:18:10;21;20;15
57049;PMS7003;42935;50.966;16.992;2023-08-20T10:21:31;20;18;14
57049;PMS7003;42935;50.966;16.992;2023-08-20T10:24:52;20;19;14
57049;PMS7003;42935;50.966;16.992;2023-08-20T10:28:24;23;22;15
57049;PMS7003;42935;50.966;16.992;2023-08-20T10:31:48;21;20;17
57049;PMS7003;42935;50.966;16.992;2023-08-20T10:38:41;21;20;14
57049;PMS7003;42935;50.966;16.992;2023-08-20T10:46:01;20;18;14
57049;PMS7003;42935;50.966;16.992;2023-08-20T10:49:20;18;17;13
57049;PMS7003;42935;50.966;16.992;2023-08-20T10:56:17;19;18;15
57049;PMS7003;42935;50.966;16.992;2023-08-20T10:59:43;21;19;15
57049;PMS7003;42935;50.966;16.992;2023-08-20T11:03:10;19;18;14
57049;PMS7003;42935;50.966;16.992;2023-08-20T11:07:09;19;18;14
57049;PMS7003;42935;50.966;16.992;2023-08-20T11:10:31;17;17;13
57049;PMS7003;42935;50.966;16.992;2023-08-20T11:13:56;22;20;16
57049;PMS7003;42935;50.966;16.992;2023-08-20T11:17:17;18;18;14
57049;PMS7003;42935;50.966;16.992;2023-08-20T11:20:38;20;18;14
57049;PMS7003;42935;50.966;16.992;2023-08-20T11:23:59;20;19;15
57049;PMS7003;42935;50.966;16.992;2023-08-20T11:27:30;20;18;14
57049;PMS7003;42935;50.966;16.992;2023-08-20T11:30:58;21;18;13
57049;PMS7003;42935;50.966;16.992;2023-08-20T11:34:26;18;17;13
57049;PMS7003;42935;50.966;16.992;2023-08-20T11:37:54;19;18;14
57049;PMS7003;42935;50.966;16.992;2023-08-20T11:41:16;17;17;14
57049;PMS7003;42935;50.966;16.992;2023-08-20T11:44:43;21;18;13
57049;PMS7003;42935;50.966;16.992;2023-08-20T11:48:11;21;20;15
57049;PMS7003;42935;50.966;16.992;2023-08-20T11:51:40;17;15;12
57049;PMS7003;42935;50.966;16.992;2023-08-20T11:55:03;18;17;13
57049;PMS7003;42935;50.966;16.992;2023-08-20T11:59:01;18;17;14
57049;PMS7003;42935;50.966;16.992;2023-08-20T12:02:27;18;17;13
57049;PMS7003;42935;50.966;16.992;2023-08-20T12:05:50;17;16;13
57049;PMS7003;42935;50.966;16.992;2023-08-20T12:12:47;17;17;13
57049;PMS7003;42935;50.966;16.992;2023-08-20T12:16:48;19;16;14
57049;PMS7003;42935;50.966;16.992;2023-08-20T12:20:12;17;16;13
57049;PMS7003;42935;50.966;16.992;2023-08-20T12:23:35;18;16;13
57049;PMS7003;42935;50.966;16.992;2023-08-20T12:26:55;17;16;12
57049;PMS7003;42935;50.966;16.992;2023-08-20T12:30:20;19;18;13
57049;PMS7003;42935;50.966;16.992;2023-08-20T12:33:47;16;15;12
57049;PMS7003;42935;50.966;16.992;2023-08-20T12:37:08;19;16;12
57049;PMS7003;42935;50.966;16.992;2023-08-20T12:40:30;18;16;12
57049;PMS7003;42935;50.966;16.992;2023-08-20T12:43:50;17;16;13
57049;PMS7003;42935;50.966;16.992;2023-08-20T12:47:15;16;16;13
57049;PMS7003;42935;50.966;16.992;2023-08-20T12:50:45;16;16;13
57049;PMS7003;42935;50.966;16.992;2023-08-20T12:54:04;16;16;12
57049;PMS7003;42935;50.966;16.992;2023-08-20T12:57:27;16;16;12
57049;PMS7003;42935;50.966;16.992;2023-08-20T13:01:21;19;18;14
57049;PMS7003;42935;50.966;16.992;2023-08-20T13:04:44;15;14;11
57049;PMS7003;42935;50.966;16.992;2023-08-20T13:08:34;17;16;13
57049;PMS7003;42935;50.966;16.992;2023-08-20T13:12:00;18;16;12
57049;PMS7003;42935;50.966;16.992;2023-08-20T13:15:29;17;16;11
57049;PMS7003;42935;50.966;16.992;2023-08-20T13:18:50;17;15;11
57049;PMS7003;42935;50.966;16.992;2023-08-20T13:22:13;14;14;12
57049;PMS7003;42935;50.966;16.992;2023-08-20T13:25:33;16;15;12
57049;PMS7003;42935;50.966;16.992;2023-08-20T13:28:53;18;16;12
57049;PMS7003;42935;50.966;16.992;2023-08-20T13:32:13;18;17;13
57049;PMS7003;42935;50.966;16.992;2023-08-20T13:36:11;17;15;12
57049;PMS7003;42935;50.966;16.992;2023-08-20T13:39:32;17;15;13
57049;PMS7003;42935;50.966;16.992;2023-08-20T13:42:53;17;15;11
57049;PMS7003;42935;50.966;16.992;2023-08-20T13:46:43;17;16;13
57049;PMS7003;42935;50.966;16.992;2023-08-20T13:50:06;15;15;11
57049;PMS7003;42935;50.966;16.992;2023-08-20T13:53:28;16;15;12
57049;PMS7003;42935;50.966;16.992;2023-08-20T13:56:48;20;17;14
57049;PMS7003;42935;50.966;16.992;2023-08-20T14:00:04;15;15;11
57049;PMS7003;42935;50.966;16.992;2023-08-20T14:03:38;16;16;12
57049;PMS7003;42935;50.966;16.992;2023-08-20T14:07:00;16;15;12
57049;PMS7003;42935;50.966;16.992;2023-08-20T14:10:27;16;16;13
57049;PMS7003;42935;50.966;16.992;2023-08-20T14:13:50;16;14;12
57049;PMS7003;42935;50.966;16.992;2023-08-20T14:17:11;15;14;11
57049;PMS7003;42935;50.966;16.992;2023-08-20T14:20:38;18;16;13
57049;PMS7003;42935;50.966;16.992;2023-08-20T14:24:04;15;15;12
57049;PMS7003;42935;50.966;16.992;2023-08-20T14:27:28;17;16;13
57049;PMS7003;42935;50.966;16.992;2023-08-20T14:31:01;15;15;11
57049;PMS7003;42935;50.966;16.992;2023-08-20T14:35:02;18;14;12
57049;PMS7003;42935;50.966;16.992;2023-08-20T14:38:22;15;15;12
57049;PMS7003;42935;50.966;16.992;2023-08-20T14:41:50;18;14;11
57049;PMS7003;42935;50.966;16.992;2023-08-20T14:45:48;16;15;12
57049;PMS7003;42935;50.966;16.992;2023-08-20T14:49:29;16;14;12
57049;PMS7003;42935;50.966;16.992;2023-08-20T14:53:24;19;16;13
57049;PMS7003;42935;50.966;16.992;2023-08-20T14:57:19;18;17;13
57049;PMS7003;42935;50.966;16.992;2023-08-20T15:00:40;17;16;12
57049;PMS7003;42935;50.966;16.992;2023-08-20T15:04:09;19;16;12
57049;PMS7003;42935;50.966;16.992;2023-08-20T15:07:32;15;14;12
57049;PMS7003;42935;50.966;16.992;2023-08-20T15:10:58;18;17;14
57049;PMS7003;42935;50.966;16.992;2023-08-20T15:15:03;16;15;13
57049;PMS7003;42935;50.966;16.992;2023-08-20T15:18:30;18;15;11
57049;PMS7003;42935;50.966;16.992;2023-08-20T15:21:58;16;15;12
57049;PMS7003;42935;50.966;16.992;2023-08-20T15:25:21;16;15;12
57049;PMS7003;42935;50.966;16.992;2023-08-20T15:29:04;16;16;13
57049;PMS7003;42935;50.966;16.992;2023-08-20T15:32:27;17;16;12
57049;PMS7003;42935;50.966;16.992;2023-08-20T15:35:49;20;17;13
57049;PMS7003;42935;50.966;16.992;2023-08-20T15:39:13;19;18;13
57049;PMS7003;42935;50.966;16.992;2023-08-20T15:42:45;24;19;12
57049;PMS7003;42935;50.966;16.992;2023-08-20T15:46:12;16;15;12
57049;PMS7003;42935;50.966;16.992;2023-08-20T15:49:46;17;16;13
57049;PMS7003;42935;50.966;16.992;2023-08-20T15:53:20;17;14;11
57049;PMS7003;42935;50.966;16.992;2023-08-20T15:56:44;17;16;12
57049;PMS7003;42935;50.966;16.992;2023-08-20T16:00:08;16;16;13
57049;PMS7003;42935;50.966;16.992;2023-08-20T16:03:37;17;16;12
57049;PMS7003;42935;50.966;16.992;2023-08-20T16:07:06;16;16;13
57049;PMS7003;42935;50.966;16.992;2023-08-20T16:10:40;14;12;10
57049;PMS7003;42935;50.966;16.992;2023-08-20T16:14:02;16;15;12
57049;PMS7003;42935;50.966;16.992;2023-08-20T16:17:56;14;13;10
57049;PMS7003;42935;50.966;16.992;2023-08-20T16:21:28;18;15;11
57049;PMS7003;42935;50.966;16.992;2023-08-20T16:24:49;13;13;11
57049;PMS7003;42935;50.966;16.992;2023-08-20T16:28:09;14;13;11
57049;PMS7003;42935;50.966;16.992;2023-08-20T16:31:42;14;14;12
57049;PMS7003;42935;50.966;16.992;2023-08-20T16:35:36;15;15;11
57049;PMS7003;42935;50.966;16.992;2023-08-20T16:38:59;14;13;11
57049;PMS7003;42935;50.966;16.992;2023-08-20T16:42:27;14;13;10
57049;PMS7003;42935;50.966;16.992;2023-08-20T16:46:09;14;14;11
57049;PMS7003;42935;50.966;16.992;2023-08-20T16:49:43;14;14;11
57049;PMS7003;42935;50.966;16.992;2023-08-20T16:53:03;17;14;12
57049;PMS7003;42935;50.966;16.992;2023-08-20T16:56:53;14;12;10
57049;PMS7003;42935;50.966;16.992;2023-08-20T17:00:17;12;12;10
57049;PMS7003;42935;50.966;16.992;2023-08-20T17:04:10;14;14;11
57049;PMS7003;42935;50.966;16.992;2023-08-20T17:07:44;14;13;10
57049;PMS7003;42935;50.966;16.992;2023-08-20T17:11:06;16;14;11
57049;PMS7003;42935;50.966;16.992;2023-08-20T17:14:27;13;13;10
57049;PMS7003;42935;50.966;16.992;2023-08-20T17:18:28;15;14;11
57049;PMS7003;42935;50.966;16.992;2023-08-20T17:22:21;16;15;12
57049;PMS7003;42935;50.966;16.992;2023-08-20T17:25:43;15;13;10
57049;PMS7003;42935;50.966;16.992;2023-08-20T17:29:01;15;14;11
57049;PMS7003;42935;50.966;16.992;2023-08-20T17:32:55;14;12;10
57049;PMS7003;42935;50.966;16.992;2023-08-20T17:36:23;14;14;11
57049;PMS7003;42935;50.966;16.992;2023-08-20T17:40:17;14;12;10
57049;PMS7003;42935;50.966;16.992;2023-08-20T17:43:40;13;12;9
57049;PMS7003;42935;50.966;16.992;2023-08-20T17:47:07;14;13;10
57049;PMS7003;42935;50.966;16.992;2023-08-20T17:50:28;16;14;11
57049;PMS7003;42935;50.966;16.992;2023-08-20T17:53:52;15;13;10
57049;PMS7003;42935;50.966;16.992;2023-08-20T17:57:12;15;14;11
57049;PMS7003;42935;50.966;16.992;2023-08-20T18:00:37;15;14;10
57049;PMS7003;42935;50.966;16.992;2023-08-20T18:03:58;14;13;11
57049;PMS7003;42935;50.966;16.992;2023-08-20T18:07:19;16;14;11
57049;PMS7003;42935;50.966;16.992;2023-08-20T18:10:40;17;14;12
57049;PMS7003;42935;50.966;16.992;2023-08-20T18:14:04;15;13;10
57049;PMS7003;42935;50.966;16.992;2023-08-20T18:17:26;15;15;11
57049;PMS7003;42935;50.966;16.992;2023-08-20T18:20:53;16;15;11
57049;PMS7003;42935;50.966;16.992;2023-08-20T18:24:18;16;15;12
57049;PMS7003;42935;50.966;16.992;2023-08-20T18:27:41;16;14;10
57049;PMS7003;42935;50.966;16.992;2023-08-20T18:31:12;19;18;13
57049;PMS7003;42935;50.966;16.992;2023-08-20T18:34:37;19;18;13
57049;PMS7003;42935;50.966;16.992;2023-08-20T18:37:58;18;17;13
57049;PMS7003;42935;50.966;16.992;2023-08-20T18:41:19;17;16;12
57049;PMS7003;42935;50.966;16.992;2023-08-20T18:45:23;16;15;12
57049;PMS7003;42935;50.966;16.992;2023-08-20T18:48:46;17;16;13
57049;PMS7003;42935;50.966;16.992;2023-08-20T18:52:41;22;19;14
57049;PMS7003;42935;50.966;16.992;2023-08-20T18:56:03;16;16;12
57049;PMS7003;42935;50.966;16.992;2023-08-20T18:59:22;20;16;12
57049;PMS7003;42935;50.966;16.992;2023-08-20T19:03:13;14;14;12
57049;PMS7003;42935;50.966;16.992;2023-08-20T19:06:42;15;15;12
57049;PMS7003;42935;50.966;16.992;2023-08-20T19:10:06;15;14;11
57049;PMS7003;42935;50.966;16.992;2023-08-20T19:13:33;15;14;11
57049;PMS7003;42935;50.966;16.992;2023-08-20T19:16:55;19;17;13
57049;PMS7003;42935;50.966;16.992;2023-08-20T19:20:23;15;13;10
57049;PMS7003;42935;50.966;16.992;2023-08-20T19:23:44;16;16;12
57049;PMS7003;42935;50.966;16.992;2023-08-20T19:27:43;17;16;13
57049;PMS7003;42935;50.966;16.992;2023-08-20T19:31:04;19;18;13
57049;PMS7003;42935;50.966;16.992;2023-08-20T19:34:27;18;17;13
57049;PMS7003;42935;50.966;16.992;2023-08-20T19:38:24;18;17;14
57049;PMS7003;42935;50.966;16.992;2023-08-20T19:42:20;19;18;13
57049;PMS7003;42935;50.966;16.992;2023-08-20T19:45:53;20;17;12
57049;PMS7003;42935;50.966;16.992;2023-08-20T19:49:10;20;17;13
57049;PMS7003;42935;50.966;16.992;2023-08-20T19:52:34;19;18;14
57049;PMS7003;42935;50.966;16.992;2023-08-20T19:55:55;20;19;15
57049;PMS7003;42935;50.966;16.992;2023-08-20T19:59:28;19;18;13
57049;PMS7003;42935;50.966;16.992;2023-08-20T20:02:51;18;18;13
57049;PMS7003;42935;50.966;16.992;2023-08-20T20:06:18;24;20;15
57049;PMS7003;42935;50.966;16.992;2023-08-20T20:10:16;24;23;17
57049;PMS7003;42935;50.966;16.992;2023-08-20T20:13:43;23;21;15
57049;PMS7003;42935;50.966;16.992;2023-08-20T20:17:05;22;19;15
57049;PMS7003;42935;50.966;16.992;2023-08-20T20:20:26;23;22;15
57049;PMS7003;42935;50.966;16.992;2023-08-20T20:23:54;20;19;15
57049;PMS7003;42935;50.966;16.992;2023-08-20T20:27:18;22;20;15
57049;PMS7003;42935;50.966;16.992;2023-08-20T20:30:48;21;20;16
57049;PMS7003;42935;50.966;16.992;2023-08-20T20:34:08;27;25;18
57049;PMS7003;42935;50.966;16.992;2023-08-20T20:37:29;23;22;17
57049;PMS7003;42935;50.966;16.992;2023-08-20T20:40:51;22;22;16
57049;PMS7003;42935;50.966;16.992;2023-08-20T20:44:12;25;22;17
57049;PMS7003;42935;50.966;16.992;2023-08-20T20:47:40;24;22;17
57049;PMS7003;42935;50.966;16.992;2023-08-20T20:51:01;27;24;17
57049;PMS7003;42935;50.966;16.992;2023-08-20T20:54:22;26;25;17
57049;PMS7003;42935;50.966;16.992;2023-08-20T20:57:46;23;22;17
57049;PMS7003;42935;50.966;16.992;2023-08-20T21:01:07;29;27;20
57049;PMS7003;42935;50.966;16.992;2023-08-20T21:05:02;28;25;18
57049;PMS7003;42935;50.966;16.992;2023-08-20T21:08:29;26;23;16
57049;PMS7003;42935;50.966;16.992;2023-08-20T21:11:59;26;24;18
57049;PMS7003;42935;50.966;16.992;2023-08-20T21:15:18;25;23;17
57049;PMS7003;42935;50.966;16.992;2023-08-20T21:18:43;21;20;16
57049;PMS7003;42935;50.966;16.992;2023-08-20T21:22:11;21;20;16
57049;PMS7003;42935;50.966;16.992;2023-08-20T21:25:36;22;22;17
57049;PMS7003;42935;50.966;16.992;2023-08-20T21:29:02;23;22;17
57049;PMS7003;42935;50.966;16.992;2023-08-20T21:32:25;24;23;17
57049;PMS7003;42935;50.966;16.992;2023-08-20T21:36:26;24;23;17
57049;PMS7003;42935;50.966;16.992;2023-08-20T21:40:01;26;24;16
57049;PMS7003;42935;50.966;16.992;2023-08-20T21:43:52;23;21;16
57049;PMS7003;42935;50.966;16.992;2023-08-20T21:50:44;24;21;16
57049;PMS7003;42935;50.966;16.992;2023-08-20T21:54:08;23;21;16
57049;PMS7003;42935;50.966;16.992;2023-08-20T21:57:32;22;22;17
57049;PMS7003;42935;50.966;16.992;2023-08-20T22:01:08;25;23;16
57049;PMS7003;42935;50.966;16.992;2023-08-20T22:04:31;25;23;18
57049;PMS7003;42935;50.966;16.992;2023-08-20T22:07:54;27;26;17
57049;PMS7003;42935;50.966;16.992;2023-08-20T22:11:16;22;22;17
57049;PMS7003;42935;50.966;16.992;2023-08-20T22:14:42;23;23;18
57049;PMS7003;42935;50.966;16.992;2023-08-20T22:18:06;26;24;18
57049;PMS7003;42935;50.966;16.992;2023-08-20T22:21:31;22;21;16
57049;PMS7003;42935;50.966;16.992;2023-08-20T22:24:56;27;24;18
57049;PMS7003;42935;50.966;16.992;2023-08-20T22:28:27;27;26;17
57049;PMS7003;42935;50.966;16.992;2023-08-20T22:31:54;27;26;18
57049;PMS7003;42935;50.966;16.992;2023-08-20T22:35:23;26;24;18
57049;PMS7003;42935;50.966;16.992;2023-08-20T22:38:57;27;26;18